Drummond, Idaho
Current Conditions -  °F | °C
As of 2:56 AM on Tuesday 21 Oct 2014 (Local Time) from KDIJ Reporting Station
Clear Clear  
Wind Chill: 45°   Ceiling: Unl
Heat Index: 49°   Visibility: 10mi
Dew Point: 33°   Wind: 9mph
Humidity: 54%   Direction: 160°SSE
Pressure: 29.94"   Gusts: NA
Location:  44.0126°N, 111.37°W
Report Text: KDIJ 210856Z AUTO 16008KT 10SM CLR 09/01 A2994 RMK AO2 57013 T00940005 SLP059
Loading
Personal Weather Stations






























Interactive Weather Map
Tropical Storm Tracking
New forecast layout! Learn more

10-Day Weather Forecast

Advertisements
Track Severe Weather on mobile